sensor_id;sensor_type;location;lat;lon;timestamp;P1;durP1;ratioP1;P2;durP2;ratioP2
52342;SDS011;38277;51.972;4.624;2022-09-16T00:03:20;4.1;;;1.1;;
52342;SDS011;38277;51.972;4.624;2022-09-16T00:07:46;3.6;;;1.2;;
52342;SDS011;38277;51.972;4.624;2022-09-16T00:12:29;3.8;;;1.3;;
52342;SDS011;38277;51.972;4.624;2022-09-16T00:16:48;5.1;;;1.3;;
52342;SDS011;38277;51.972;4.624;2022-09-16T00:21:18;4.1;;;1.4;;
52342;SDS011;38277;51.972;4.624;2022-09-16T00:30:44;3.6;;;1.2;;
52342;SDS011;38277;51.972;4.624;2022-09-16T00:35:19;4.0;;;1.3;;
52342;SDS011;38277;51.972;4.624;2022-09-16T00:39:40;5.0;;;1.2;;
52342;SDS011;38277;51.972;4.624;2022-09-16T00:44:03;7.0;;;1.4;;
52342;SDS011;38277;51.972;4.624;2022-09-16T00:48:43;3.1;;;1.1;;
52342;SDS011;38277;51.972;4.624;2022-09-16T00:53:12;3.4;;;1.3;;
52342;SDS011;38277;51.972;4.624;2022-09-16T00:57:19;7.4;;;1.1;;
52342;SDS011;38277;51.972;4.624;2022-09-16T01:01:57;5.8;;;1.2;;
52342;SDS011;38277;51.972;4.624;2022-09-16T01:06:23;7.0;;;1.6;;
52342;SDS011;38277;51.972;4.624;2022-09-16T01:11:21;4.1;;;1.4;;
52342;SDS011;38277;51.972;4.624;2022-09-16T01:15:27;2.0;;;1.2;;
52342;SDS011;38277;51.972;4.624;2022-09-16T01:20:47;3.5;;;1.2;;
52342;SDS011;38277;51.972;4.624;2022-09-16T01:26:50;8.0;;;1.3;;
52342;SDS011;38277;51.972;4.624;2022-09-16T01:32:11;7.2;;;1.6;;
52342;SDS011;38277;51.972;4.624;2022-09-16T01:40:37;2.8;;;0.9;;
52342;SDS011;38277;51.972;4.624;2022-09-16T01:48:32;4.1;;;0.7;;
52342;SDS011;38277;51.972;4.624;2022-09-16T01:55:56;3.8;;;0.9;;
52342;SDS011;38277;51.972;4.624;2022-09-16T02:00:34;2.2;;;0.7;;
52342;SDS011;38277;51.972;4.624;2022-09-16T02:04:57;3.7;;;1.2;;
52342;SDS011;38277;51.972;4.624;2022-09-16T02:13:54;3.5;;;0.9;;
52342;SDS011;38277;51.972;4.624;2022-09-16T02:18:56;4.0;;;0.9;;
52342;SDS011;38277;51.972;4.624;2022-09-16T02:22:56;2.0;;;0.7;;
52342;SDS011;38277;51.972;4.624;2022-09-16T02:36:31;2.6;;;1.0;;
52342;SDS011;38277;51.972;4.624;2022-09-16T02:41:04;2.6;;;0.9;;
52342;SDS011;38277;51.972;4.624;2022-09-16T02:49:56;3.8;;;1.0;;
52342;SDS011;38277;51.972;4.624;2022-09-16T02:54:23;1.9;;;0.7;;
52342;SDS011;38277;51.972;4.624;2022-09-16T03:17:34;3.0;;;0.9;;
52342;SDS011;38277;51.972;4.624;2022-09-16T03:26:21;1.8;;;0.6;;
52342;SDS011;38277;51.972;4.624;2022-09-16T03:30:45;2.3;;;0.6;;
52342;SDS011;38277;51.972;4.624;2022-09-16T03:39:27;1.2;;;0.8;;
52342;SDS011;38277;51.972;4.624;2022-09-16T03:43:56;2.5;;;1.3;;
52342;SDS011;38277;51.972;4.624;2022-09-16T03:48:26;2.2;;;1.1;;
52342;SDS011;38277;51.972;4.624;2022-09-16T03:52:48;1.6;;;0.8;;
52342;SDS011;38277;51.972;4.624;2022-09-16T04:01:50;1.1;;;0.7;;
52342;SDS011;38277;51.972;4.624;2022-09-16T04:06:28;2.3;;;1.2;;
52342;SDS011;38277;51.972;4.624;2022-09-16T04:10:52;3.3;;;0.9;;
52342;SDS011;38277;51.972;4.624;2022-09-16T04:15:29;2.6;;;1.1;;
52342;SDS011;38277;51.972;4.624;2022-09-16T04:20:02;3.6;;;0.7;;
52342;SDS011;38277;51.972;4.624;2022-09-16T04:24:35;3.1;;;0.9;;
52342;SDS011;38277;51.972;4.624;2022-09-16T04:29:03;2.1;;;0.8;;
52342;SDS011;38277;51.972;4.624;2022-09-16T04:37:47;2.7;;;0.7;;
52342;SDS011;38277;51.972;4.624;2022-09-16T04:42:50;2.4;;;0.6;;
52342;SDS011;38277;51.972;4.624;2022-09-16T04:47:03;2.5;;;0.7;;
52342;SDS011;38277;51.972;4.624;2022-09-16T04:51:32;2.0;;;0.6;;
52342;SDS011;38277;51.972;4.624;2022-09-16T04:56:22;3.1;;;0.8;;
52342;SDS011;38277;51.972;4.624;2022-09-16T05:00:26;3.9;;;0.9;;
52342;SDS011;38277;51.972;4.624;2022-09-16T05:05:11;2.7;;;1.0;;
52342;SDS011;38277;51.972;4.624;2022-09-16T05:09:48;1.4;;;0.7;;
52342;SDS011;38277;51.972;4.624;2022-09-16T05:14:12;5.3;;;1.3;;
52342;SDS011;38277;51.972;4.624;2022-09-16T05:18:33;4.5;;;1.3;;
52342;SDS011;38277;51.972;4.624;2022-09-16T05:22:47;1.9;;;0.9;;
52342;SDS011;38277;51.972;4.624;2022-09-16T05:27:33;2.9;;;1.0;;
52342;SDS011;38277;51.972;4.624;2022-09-16T05:32:12;2.0;;;1.2;;
52342;SDS011;38277;51.972;4.624;2022-09-16T05:36:27;2.8;;;1.1;;
52342;SDS011;38277;51.972;4.624;2022-09-16T05:40:57;3.4;;;1.1;;
52342;SDS011;38277;51.972;4.624;2022-09-16T05:45:41;2.2;;;1.2;;
52342;SDS011;38277;51.972;4.624;2022-09-16T05:49:46;5.4;;;1.2;;
52342;SDS011;38277;51.972;4.624;2022-09-16T05:54:31;3.0;;;1.1;;
52342;SDS011;38277;51.972;4.624;2022-09-16T06:03:43;2.6;;;1.1;;
52342;SDS011;38277;51.972;4.624;2022-09-16T06:12:24;5.8;;;1.5;;
52342;SDS011;38277;51.972;4.624;2022-09-16T06:21:41;2.3;;;0.9;;
52342;SDS011;38277;51.972;4.624;2022-09-16T06:25:57;1.9;;;0.7;;
52342;SDS011;38277;51.972;4.624;2022-09-16T06:30:40;5.8;;;1.6;;
52342;SDS011;38277;51.972;4.624;2022-09-16T06:34:52;3.7;;;0.9;;
52342;SDS011;38277;51.972;4.624;2022-09-16T06:39:35;1.7;;;0.8;;
52342;SDS011;38277;51.972;4.624;2022-09-16T06:44:07;2.1;;;0.9;;
52342;SDS011;38277;51.972;4.624;2022-09-16T06:48:31;3.9;;;1.0;;
52342;SDS011;38277;51.972;4.624;2022-09-16T06:52:58;4.4;;;1.5;;
52342;SDS011;38277;51.972;4.624;2022-09-16T06:57:38;3.8;;;0.9;;
52342;SDS011;38277;51.972;4.624;2022-09-16T07:01:45;1.8;;;1.1;;
52342;SDS011;38277;51.972;4.624;2022-09-16T07:06:28;4.9;;;1.1;;
52342;SDS011;38277;51.972;4.624;2022-09-16T07:11:00;5.2;;;1.4;;
52342;SDS011;38277;51.972;4.624;2022-09-16T07:15:31;3.1;;;1.1;;
52342;SDS011;38277;51.972;4.624;2022-09-16T07:20:02;4.4;;;1.3;;
52342;SDS011;38277;51.972;4.624;2022-09-16T07:24:36;4.2;;;1.2;;
52342;SDS011;38277;51.972;4.624;2022-09-16T07:33:34;6.4;;;1.1;;
52342;SDS011;38277;51.972;4.624;2022-09-16T07:37:56;5.8;;;1.3;;
52342;SDS011;38277;51.972;4.624;2022-09-16T07:42:43;8.1;;;1.4;;
52342;SDS011;38277;51.972;4.624;2022-09-16T07:51:41;4.0;;;1.2;;
52342;SDS011;38277;51.972;4.624;2022-09-16T07:56:13;4.8;;;1.2;;
52342;SDS011;38277;51.972;4.624;2022-09-16T08:13:56;5.4;;;1.1;;
52342;SDS011;38277;51.972;4.624;2022-09-16T08:18:24;3.7;;;1.3;;
52342;SDS011;38277;51.972;4.624;2022-09-16T08:27:21;5.6;;;1.5;;
52342;SDS011;38277;51.972;4.624;2022-09-16T08:31:51;3.0;;;1.1;;
52342;SDS011;38277;51.972;4.624;2022-09-16T08:36:30;7.8;;;1.6;;
52342;SDS011;38277;51.972;4.624;2022-09-16T08:49:51;3.8;;;0.9;;
52342;SDS011;38277;51.972;4.624;2022-09-16T08:54:42;5.1;;;1.1;;
52342;SDS011;38277;51.972;4.624;2022-09-16T09:03:40;6.4;;;1.6;;
52342;SDS011;38277;51.972;4.624;2022-09-16T09:08:05;5.0;;;1.2;;
52342;SDS011;38277;51.972;4.624;2022-09-16T09:12:23;2.9;;;1.2;;
52342;SDS011;38277;51.972;4.624;2022-09-16T09:17:34;3.1;;;1.2;;
52342;SDS011;38277;51.972;4.624;2022-09-16T09:22:12;5.1;;;1.6;;
52342;SDS011;38277;51.972;4.624;2022-09-16T09:26:44;6.2;;;1.2;;
52342;SDS011;38277;51.972;4.624;2022-09-16T09:30:41;4.7;;;1.4;;
52342;SDS011;38277;51.972;4.624;2022-09-16T09:35:27;5.6;;;1.9;;
52342;SDS011;38277;51.972;4.624;2022-09-16T09:40:20;7.0;;;1.6;;
52342;SDS011;38277;51.972;4.624;2022-09-16T09:44:44;5.0;;;1.1;;
52342;SDS011;38277;51.972;4.624;2022-09-16T09:48:26;2.9;;;1.0;;
52342;SDS011;38277;51.972;4.624;2022-09-16T09:52:51;3.2;;;1.2;;
52342;SDS011;38277;51.972;4.624;2022-09-16T09:57:29;4.7;;;1.8;;
52342;SDS011;38277;51.972;4.624;2022-09-16T10:01:52;2.6;;;0.9;;
52342;SDS011;38277;51.972;4.624;2022-09-16T10:06:41;3.9;;;1.4;;
52342;SDS011;38277;51.972;4.624;2022-09-16T10:11:02;3.8;;;1.3;;
52342;SDS011;38277;51.972;4.624;2022-09-16T10:19:54;4.0;;;1.1;;
52342;SDS011;38277;51.972;4.624;2022-09-16T10:24:36;8.5;;;1.6;;
52342;SDS011;38277;51.972;4.624;2022-09-16T10:28:59;2.1;;;0.6;;
52342;SDS011;38277;51.972;4.624;2022-09-16T10:33:27;3.7;;;0.8;;
52342;SDS011;38277;51.972;4.624;2022-09-16T10:37:57;5.1;;;1.0;;
52342;SDS011;38277;51.972;4.624;2022-09-16T10:42:22;4.4;;;1.2;;
52342;SDS011;38277;51.972;4.624;2022-09-16T10:46:59;3.3;;;0.9;;
52342;SDS011;38277;51.972;4.624;2022-09-16T10:55:57;3.2;;;0.8;;
52342;SDS011;38277;51.972;4.624;2022-09-16T11:00:28;5.0;;;1.2;;
52342;SDS011;38277;51.972;4.624;2022-09-16T11:05:40;5.8;;;1.2;;
52342;SDS011;38277;51.972;4.624;2022-09-16T11:19:31;6.5;;;1.1;;
52342;SDS011;38277;51.972;4.624;2022-09-16T11:24:13;2.8;;;0.9;;
52342;SDS011;38277;51.972;4.624;2022-09-16T11:32:15;6.1;;;1.2;;
52342;SDS011;38277;51.972;4.624;2022-09-16T11:37:42;3.8;;;0.9;;
52342;SDS011;38277;51.972;4.624;2022-09-16T11:41:37;3.9;;;1.1;;
52342;SDS011;38277;51.972;4.624;2022-09-16T11:50:08;8.6;;;1.8;;
52342;SDS011;38277;51.972;4.624;2022-09-16T11:55:29;9.5;;;2.0;;
52342;SDS011;38277;51.972;4.624;2022-09-16T11:58:50;6.2;;;1.7;;
52342;SDS011;38277;51.972;4.624;2022-09-16T12:08:13;13.0;;;2.2;;
52342;SDS011;38277;51.972;4.624;2022-09-16T12:12:38;5.9;;;2.0;;
52342;SDS011;38277;51.972;4.624;2022-09-16T12:17:03;6.5;;;1.9;;
52342;SDS011;38277;51.972;4.624;2022-09-16T12:26:08;5.9;;;1.9;;
52342;SDS011;38277;51.972;4.624;2022-09-16T12:30:39;5.7;;;1.7;;
52342;SDS011;38277;51.972;4.624;2022-09-16T12:34:49;5.8;;;1.4;;
52342;SDS011;38277;51.972;4.624;2022-09-16T12:39:23;6.0;;;1.8;;
52342;SDS011;38277;51.972;4.624;2022-09-16T12:45:14;6.6;;;1.6;;
52342;SDS011;38277;51.972;4.624;2022-09-16T12:51:44;7.0;;;1.7;;
52342;SDS011;38277;51.972;4.624;2022-09-16T12:56:48;9.1;;;1.8;;
52342;SDS011;38277;51.972;4.624;2022-09-16T13:00:57;2.5;;;1.3;;
52342;SDS011;38277;51.972;4.624;2022-09-16T13:03:28;3.1;;;1.1;;
52342;SDS011;38277;51.972;4.624;2022-09-16T13:06:27;4.4;;;1.0;;
52342;SDS011;38277;51.972;4.624;2022-09-16T13:10:58;3.9;;;1.0;;
52342;SDS011;38277;51.972;4.624;2022-09-16T13:15:26;5.5;;;1.4;;
52342;SDS011;38277;51.972;4.624;2022-09-16T13:19:50;3.6;;;1.4;;
52342;SDS011;38277;51.972;4.624;2022-09-16T13:24:28;4.4;;;1.8;;
52342;SDS011;38277;51.972;4.624;2022-09-16T13:28:59;5.1;;;1.5;;
52342;SDS011;38277;51.972;4.624;2022-09-16T13:33:27;5.9;;;1.6;;
52342;SDS011;38277;51.972;4.624;2022-09-16T13:38:09;6.2;;;1.7;;
52342;SDS011;38277;51.972;4.624;2022-09-16T13:42:29;4.1;;;1.5;;
52342;SDS011;38277;51.972;4.624;2022-09-16T13:46:51;5.9;;;2.0;;
52342;SDS011;38277;51.972;4.624;2022-09-16T13:51:50;6.6;;;1.4;;
52342;SDS011;38277;51.972;4.624;2022-09-16T13:55:50;6.5;;;1.5;;
52342;SDS011;38277;51.972;4.624;2022-09-16T14:00:21;7.2;;;1.8;;
52342;SDS011;38277;51.972;4.624;2022-09-16T14:05:31;5.3;;;1.6;;
52342;SDS011;38277;51.972;4.624;2022-09-16T14:09:46;5.3;;;1.6;;
52342;SDS011;38277;51.972;4.624;2022-09-16T14:18:27;4.3;;;1.5;;
52342;SDS011;38277;51.972;4.624;2022-09-16T14:22:59;7.6;;;1.5;;
52342;SDS011;38277;51.972;4.624;2022-09-16T14:36:41;7.3;;;1.8;;
52342;SDS011;38277;51.972;4.624;2022-09-16T14:40:49;7.0;;;2.2;;
52342;SDS011;38277;51.972;4.624;2022-09-16T14:45:26;6.6;;;1.7;;
52342;SDS011;38277;51.972;4.624;2022-09-16T14:54:26;6.0;;;1.8;;
52342;SDS011;38277;51.972;4.624;2022-09-16T14:58:45;6.3;;;1.4;;
52342;SDS011;38277;51.972;4.624;2022-09-16T15:03:51;7.0;;;1.8;;
52342;SDS011;38277;51.972;4.624;2022-09-16T15:21:29;8.1;;;2.2;;
52342;SDS011;38277;51.972;4.624;2022-09-16T15:30:43;5.6;;;1.8;;
52342;SDS011;38277;51.972;4.624;2022-09-16T15:44:12;9.5;;;2.0;;
52342;SDS011;38277;51.972;4.624;2022-09-16T15:48:44;6.5;;;1.9;;
52342;SDS011;38277;51.972;4.624;2022-09-16T15:53:06;4.7;;;1.7;;
52342;SDS011;38277;51.972;4.624;2022-09-16T15:57:43;5.1;;;1.9;;
52342;SDS011;38277;51.972;4.624;2022-09-16T16:01:46;6.6;;;1.7;;
52342;SDS011;38277;51.972;4.624;2022-09-16T16:06:19;5.3;;;1.5;;
52342;SDS011;38277;51.972;4.624;2022-09-16T16:11:09;10.8;;;2.2;;
52342;SDS011;38277;51.972;4.624;2022-09-16T16:15:20;6.1;;;1.8;;
52342;SDS011;38277;51.972;4.624;2022-09-16T16:20:00;6.7;;;1.5;;
52342;SDS011;38277;51.972;4.624;2022-09-16T16:24:25;6.1;;;1.7;;
52342;SDS011;38277;51.972;4.624;2022-09-16T16:29:10;6.8;;;1.8;;
52342;SDS011;38277;51.972;4.624;2022-09-16T16:33:17;5.1;;;1.5;;
52342;SDS011;38277;51.972;4.624;2022-09-16T16:47:10;6.2;;;1.9;;
52342;SDS011;38277;51.972;4.624;2022-09-16T16:51:26;7.7;;;2.3;;
52342;SDS011;38277;51.972;4.624;2022-09-16T16:55:51;12.5;;;2.6;;
52342;SDS011;38277;51.972;4.624;2022-09-16T17:05:00;7.1;;;2.0;;
52342;SDS011;38277;51.972;4.624;2022-09-16T17:09:32;8.2;;;2.2;;
52342;SDS011;38277;51.972;4.624;2022-09-16T17:13:56;7.7;;;2.1;;
52342;SDS011;38277;51.972;4.624;2022-09-16T17:22:48;13.1;;;3.1;;
52342;SDS011;38277;51.972;4.624;2022-09-16T17:27:16;7.8;;;2.4;;
52342;SDS011;38277;51.972;4.624;2022-09-16T17:31:54;14.2;;;3.1;;
52342;SDS011;38277;51.972;4.624;2022-09-16T17:41:02;11.0;;;3.4;;
52342;SDS011;38277;51.972;4.624;2022-09-16T17:45:32;7.3;;;1.8;;
52342;SDS011;38277;51.972;4.624;2022-09-16T17:50:00;9.8;;;2.4;;
52342;SDS011;38277;51.972;4.624;2022-09-16T17:54:32;7.9;;;1.9;;
52342;SDS011;38277;51.972;4.624;2022-09-16T17:58:46;15.7;;;2.9;;
52342;SDS011;38277;51.972;4.624;2022-09-16T18:08:02;8.2;;;1.9;;
52342;SDS011;38277;51.972;4.624;2022-09-16T18:16:57;13.2;;;2.1;;
52342;SDS011;38277;51.972;4.624;2022-09-16T18:21:29;7.9;;;2.0;;
52342;SDS011;38277;51.972;4.624;2022-09-16T18:26:13;7.9;;;2.0;;
52342;SDS011;38277;51.972;4.624;2022-09-16T18:35:04;8.4;;;2.3;;
52342;SDS011;38277;51.972;4.624;2022-09-16T18:39:21;10.9;;;2.5;;
52342;SDS011;38277;51.972;4.624;2022-09-16T18:44:09;9.9;;;2.3;;
52342;SDS011;38277;51.972;4.624;2022-09-16T18:48:19;7.3;;;2.2;;
52342;SDS011;38277;51.972;4.624;2022-09-16T18:53:10;8.1;;;2.9;;
52342;SDS011;38277;51.972;4.624;2022-09-16T18:57:18;6.7;;;1.7;;
52342;SDS011;38277;51.972;4.624;2022-09-16T19:02:13;6.5;;;2.0;;
52342;SDS011;38277;51.972;4.624;2022-09-16T19:06:26;6.2;;;1.8;;
52342;SDS011;38277;51.972;4.624;2022-09-16T19:11:05;9.5;;;2.1;;
52342;SDS011;38277;51.972;4.624;2022-09-16T19:15:24;8.2;;;1.7;;
52342;SDS011;38277;51.972;4.624;2022-09-16T19:19:58;7.9;;;2.3;;
52342;SDS011;38277;51.972;4.624;2022-09-16T19:24:16;11.2;;;2.6;;
52342;SDS011;38277;51.972;4.624;2022-09-16T19:29:08;12.8;;;2.6;;
52342;SDS011;38277;51.972;4.624;2022-09-16T19:33:19;8.9;;;2.3;;
52342;SDS011;38277;51.972;4.624;2022-09-16T19:38:07;8.7;;;2.5;;
52342;SDS011;38277;51.972;4.624;2022-09-16T19:42:34;12.9;;;3.6;;
52342;SDS011;38277;51.972;4.624;2022-09-16T19:47:07;11.6;;;2.3;;
52342;SDS011;38277;51.972;4.624;2022-09-16T19:56:04;11.6;;;2.6;;
52342;SDS011;38277;51.972;4.624;2022-09-16T20:00:17;11.1;;;2.2;;
52342;SDS011;38277;51.972;4.624;2022-09-16T20:05:05;10.0;;;2.1;;
52342;SDS011;38277;51.972;4.624;2022-09-16T20:09:22;9.7;;;2.0;;
52342;SDS011;38277;51.972;4.624;2022-09-16T20:14:02;8.7;;;2.1;;
52342;SDS011;38277;51.972;4.624;2022-09-16T20:18:43;9.1;;;2.9;;
52342;SDS011;38277;51.972;4.624;2022-09-16T20:23:14;8.7;;;2.6;;
52342;SDS011;38277;51.972;4.624;2022-09-16T20:27:23;6.5;;;2.3;;
52342;SDS011;38277;51.972;4.624;2022-09-16T20:40:57;8.4;;;2.0;;
52342;SDS011;38277;51.972;4.624;2022-09-16T20:49:59;7.9;;;1.9;;
52342;SDS011;38277;51.972;4.624;2022-09-16T20:59:04;11.2;;;2.2;;
52342;SDS011;38277;51.972;4.624;2022-09-16T21:16:58;8.7;;;2.3;;
52342;SDS011;38277;51.972;4.624;2022-09-16T21:25:49;16.8;;;3.1;;
52342;SDS011;38277;51.972;4.624;2022-09-16T21:30:58;11.7;;;2.6;;
52342;SDS011;38277;51.972;4.624;2022-09-16T21:35:01;11.1;;;2.0;;
52342;SDS011;38277;51.972;4.624;2022-09-16T21:39:29;8.9;;;2.2;;
52342;SDS011;38277;51.972;4.624;2022-09-16T21:43:58;6.5;;;2.2;;
52342;SDS011;38277;51.972;4.624;2022-09-16T21:48:19;8.8;;;1.8;;
52342;SDS011;38277;51.972;4.624;2022-09-16T21:53:01;9.1;;;1.9;;
52342;SDS011;38277;51.972;4.624;2022-09-16T21:57:35;10.9;;;2.1;;
52342;SDS011;38277;51.972;4.624;2022-09-16T22:02:12;7.3;;;2.0;;
52342;SDS011;38277;51.972;4.624;2022-09-16T22:06:24;7.3;;;1.9;;
52342;SDS011;38277;51.972;4.624;2022-09-16T22:11:24;10.4;;;1.9;;
52342;SDS011;38277;51.972;4.624;2022-09-16T22:15:35;9.9;;;2.2;;
52342;SDS011;38277;51.972;4.624;2022-09-16T22:20:22;9.3;;;2.3;;
52342;SDS011;38277;51.972;4.624;2022-09-16T22:24:20;8.0;;;1.8;;
52342;SDS011;38277;51.972;4.624;2022-09-16T22:33:41;10.3;;;2.9;;
52342;SDS011;38277;51.972;4.624;2022-09-16T22:37:57;8.0;;;2.8;;
52342;SDS011;38277;51.972;4.624;2022-09-16T22:42:37;10.1;;;2.2;;
52342;SDS011;38277;51.972;4.624;2022-09-16T22:46:55;6.6;;;1.8;;
52342;SDS011;38277;51.972;4.624;2022-09-16T22:51:32;5.5;;;1.5;;
52342;SDS011;38277;51.972;4.624;2022-09-16T23:00:24;10.0;;;1.8;;
52342;SDS011;38277;51.972;4.624;2022-09-16T23:09:34;8.8;;;2.0;;
52342;SDS011;38277;51.972;4.624;2022-09-16T23:14:12;9.2;;;2.4;;
52342;SDS011;38277;51.972;4.624;2022-09-16T23:18:24;8.4;;;1.8;;
52342;SDS011;38277;51.972;4.624;2022-09-16T23:22:53;10.2;;;2.3;;
52342;SDS011;38277;51.972;4.624;2022-09-16T23:27:21;9.5;;;2.1;;
52342;SDS011;38277;51.972;4.624;2022-09-16T23:31:45;8.0;;;2.2;;
52342;SDS011;38277;51.972;4.624;2022-09-16T23:45:38;7.7;;;1.9;;
52342;SDS011;38277;51.972;4.624;2022-09-16T23:49:57;7.6;;;1.9;;
52342;SDS011;38277;51.972;4.624;2022-09-16T23:54:43;5.2;;;1.4;;
